sensor_id;sensor_type;location;lat;lon;timestamp;pressure;altitude;pressure_sealevel;temperature;humidity
20696;BME280;10507;52.754;13.040;2023-02-22T00:00:53;100633.16;;;7.21;100.00
20696;BME280;10507;52.754;13.040;2023-02-22T00:03:26;100621.00;;;7.16;100.00
20696;BME280;10507;52.754;13.040;2023-02-22T00:05:59;100636.94;;;7.16;100.00
20696;BME280;10507;52.754;13.040;2023-02-22T00:08:32;100642.25;;;7.16;100.00
20696;BME280;10507;52.754;13.040;2023-02-22T00:11:02;100639.59;;;7.16;100.00
20696;BME280;10507;52.754;13.040;2023-02-22T00:13:33;100644.91;;;7.16;100.00
20696;BME280;10507;52.754;13.040;2023-02-22T00:16:01;100668.78;;;7.16;100.00
20696;BME280;10507;52.754;13.040;2023-02-22T00:18:30;100682.16;;;7.13;100.00
20696;BME280;10507;52.754;13.040;2023-02-22T00:20:59;100690.19;;;7.11;100.00
20696;BME280;10507;52.754;13.040;2023-02-22T00:23:28;100695.44;;;7.13;100.00
20696;BME280;10507;52.754;13.040;2023-02-22T00:25:59;100689.25;;;7.12;100.00
20696;BME280;10507;52.754;13.040;2023-02-22T00:28:27;100689.38;;;7.09;100.00
20696;BME280;10507;52.754;13.040;2023-02-22T00:30:56;100680.69;;;7.04;100.00
20696;BME280;10507;52.754;13.040;2023-02-22T00:33:25;100658.09;;;6.92;100.00
20696;BME280;10507;52.754;13.040;2023-02-22T00:35:53;100657.69;;;6.79;100.00
20696;BME280;10507;52.754;13.040;2023-02-22T00:38:21;100669.50;;;6.69;100.00
20696;BME280;10507;52.754;13.040;2023-02-22T00:40:49;100705.94;;;6.64;100.00
20696;BME280;10507;52.754;13.040;2023-02-22T00:43:18;100709.00;;;6.52;100.00
20696;BME280;10507;52.754;13.040;2023-02-22T00:45:46;100726.81;;;6.48;100.00
20696;BME280;10507;52.754;13.040;2023-02-22T00:48:14;100719.88;;;6.42;100.00
20696;BME280;10507;52.754;13.040;2023-02-22T00:50:42;100734.94;;;6.42;100.00
20696;BME280;10507;52.754;13.040;2023-02-22T00:53:10;100760.53;;;6.43;100.00
20696;BME280;10507;52.754;13.040;2023-02-22T00:55:39;100767.59;;;6.44;100.00
20696;BME280;10507;52.754;13.040;2023-02-22T00:58:07;100771.97;;;6.45;100.00
20696;BME280;10507;52.754;13.040;2023-02-22T01:00:38;100770.25;;;6.44;100.00
20696;BME280;10507;52.754;13.040;2023-02-22T01:03:08;100788.59;;;6.50;100.00
20696;BME280;10507;52.754;13.040;2023-02-22T01:05:37;100800.09;;;6.51;100.00
20696;BME280;10507;52.754;13.040;2023-02-22T01:08:06;100778.94;;;6.48;100.00
20696;BME280;10507;52.754;13.040;2023-02-22T01:10:36;100792.28;;;6.46;100.00
20696;BME280;10507;52.754;13.040;2023-02-22T01:13:06;100809.81;;;6.50;100.00
20696;BME280;10507;52.754;13.040;2023-02-22T01:15:41;100812.41;;;6.53;100.00
20696;BME280;10507;52.754;13.040;2023-02-22T01:18:10;100806.16;;;6.54;100.00
20696;BME280;10507;52.754;13.040;2023-02-22T01:20:42;100804.31;;;6.56;100.00
20696;BME280;10507;52.754;13.040;2023-02-22T01:23:13;100773.56;;;6.51;100.00
20696;BME280;10507;52.754;13.040;2023-02-22T01:25:43;100758.53;;;6.51;100.00
20696;BME280;10507;52.754;13.040;2023-02-22T01:28:10;100753.25;;;6.50;100.00
20696;BME280;10507;52.754;13.040;2023-02-22T01:30:40;100753.31;;;6.48;100.00
20696;BME280;10507;52.754;13.040;2023-02-22T01:33:08;100765.66;;;6.49;100.00
20696;BME280;10507;52.754;13.040;2023-02-22T01:35:38;100773.63;;;6.49;100.00
20696;BME280;10507;52.754;13.040;2023-02-22T01:38:07;100776.22;;;6.51;100.00
20696;BME280;10507;52.754;13.040;2023-02-22T01:40:37;100779.75;;;6.51;100.00
20696;BME280;10507;52.754;13.040;2023-02-22T01:43:18;100773.63;;;6.49;100.00
20696;BME280;10507;52.754;13.040;2023-02-22T01:46:00;100780.47;;;6.56;100.00
20696;BME280;10507;52.754;13.040;2023-02-22T01:48:33;100769.84;;;6.56;100.00
20696;BME280;10507;52.754;13.040;2023-02-22T01:51:06;100783.09;;;6.56;100.00
20696;BME280;10507;52.754;13.040;2023-02-22T01:53:39;100784.03;;;6.55;100.00
20696;BME280;10507;52.754;13.040;2023-02-22T01:56:09;100770.13;;;6.47;100.00
20696;BME280;10507;52.754;13.040;2023-02-22T01:58:40;100749.03;;;6.44;100.00
20696;BME280;10507;52.754;13.040;2023-02-22T02:01:11;100763.19;;;6.43;100.00
20696;BME280;10507;52.754;13.040;2023-02-22T02:03:40;100768.44;;;6.44;100.00
20696;BME280;10507;52.754;13.040;2023-02-22T02:06:12;100786.16;;;6.44;100.00
20696;BME280;10507;52.754;13.040;2023-02-22T02:08:46;100803.75;;;6.47;100.00
20696;BME280;10507;52.754;13.040;2023-02-22T02:11:20;100819.66;;;6.47;100.00
20696;BME280;10507;52.754;13.040;2023-02-22T02:13:50;100833.69;;;6.50;100.00
20696;BME280;10507;52.754;13.040;2023-02-22T02:16:22;100836.34;;;6.50;100.00
20696;BME280;10507;52.754;13.040;2023-02-22T02:18:51;100832.69;;;6.54;100.00
20696;BME280;10507;52.754;13.040;2023-02-22T02:21:47;100815.91;;;6.54;100.00
20696;BME280;10507;52.754;13.040;2023-02-22T02:27:40;100805.53;;;6.46;100.00
20696;BME280;10507;52.754;13.040;2023-02-22T02:30:36;100776.66;;;6.37;100.00
20696;BME280;10507;52.754;13.040;2023-02-22T02:33:17;100776.78;;;6.32;100.00
20696;BME280;10507;52.754;13.040;2023-02-22T02:35:54;100787.47;;;6.29;100.00
20696;BME280;10507;52.754;13.040;2023-02-22T02:38:31;100784.81;;;6.29;100.00
20696;BME280;10507;52.754;13.040;2023-02-22T02:41:06;100804.25;;;6.30;100.00
20696;BME280;10507;52.754;13.040;2023-02-22T02:43:42;100799.16;;;6.23;100.00
20696;BME280;10507;52.754;13.040;2023-02-22T02:46:15;100792.28;;;6.16;100.00
20696;BME280;10507;52.754;13.040;2023-02-22T02:48:50;100814.44;;;6.14;100.00
20696;BME280;10507;52.754;13.040;2023-02-22T02:51:22;100825.19;;;6.09;100.00
20696;BME280;10507;52.754;13.040;2023-02-22T02:53:51;100829.66;;;6.07;100.00
20696;BME280;10507;52.754;13.040;2023-02-22T02:56:19;100841.16;;;6.08;100.00
20696;BME280;10507;52.754;13.040;2023-02-22T02:58:50;100846.50;;;6.04;100.00
20696;BME280;10507;52.754;13.040;2023-02-22T03:01:27;100850.97;;;6.02;100.00
20696;BME280;10507;52.754;13.040;2023-02-22T03:07:02;100849.13;;;6.06;100.00
20696;BME280;10507;52.754;13.040;2023-02-22T03:09:40;100857.91;;;6.08;100.00
20696;BME280;10507;52.754;13.040;2023-02-22T03:12:24;100859.59;;;6.11;100.00
20696;BME280;10507;52.754;13.040;2023-02-22T03:15:02;100835.72;;;6.12;100.00
20696;BME280;10507;52.754;13.040;2023-02-22T03:17:39;100832.00;;;6.18;100.00
20696;BME280;10507;52.754;13.040;2023-02-22T03:20:13;100804.81;;;6.11;100.00
20696;BME280;10507;52.754;13.040;2023-02-22T03:22:48;100801.25;;;6.12;100.00
20696;BME280;10507;52.754;13.040;2023-02-22T03:25:21;100777.44;;;6.11;100.00
20696;BME280;10507;52.754;13.040;2023-02-22T03:27:54;100756.97;;;6.14;100.00
20696;BME280;10507;52.754;13.040;2023-02-22T03:30:33;100742.00;;;6.13;100.00
20696;BME280;10507;52.754;13.040;2023-02-22T03:33:07;100724.63;;;6.03;100.00
20696;BME280;10507;52.754;13.040;2023-02-22T03:35:41;100715.56;;;5.80;100.00
20696;BME280;10507;52.754;13.040;2023-02-22T03:38:16;100745.84;;;5.72;100.00
20696;BME280;10507;52.754;13.040;2023-02-22T03:40:49;100789.09;;;5.72;100.00
20696;BME280;10507;52.754;13.040;2023-02-22T03:43:23;100821.78;;;5.71;100.00
20696;BME280;10507;52.754;13.040;2023-02-22T03:45:52;100854.34;;;5.76;100.00
20696;BME280;10507;52.754;13.040;2023-02-22T03:48:24;100871.00;;;5.80;100.00
20696;BME280;10507;52.754;13.040;2023-02-22T03:50:55;100885.91;;;5.84;100.00
20696;BME280;10507;52.754;13.040;2023-02-22T03:53:24;100897.31;;;5.88;100.00
20696;BME280;10507;52.754;13.040;2023-02-22T03:55:54;100891.09;;;5.89;100.00
20696;BME280;10507;52.754;13.040;2023-02-22T03:58:26;100884.09;;;5.86;100.00
20696;BME280;10507;52.754;13.040;2023-02-22T04:00:55;100894.59;;;5.89;100.00
20696;BME280;10507;52.754;13.040;2023-02-22T04:03:23;100866.66;;;5.77;100.00
20696;BME280;10507;52.754;13.040;2023-02-22T04:05:51;100857.22;;;5.67;100.00
20696;BME280;10507;52.754;13.040;2023-02-22T04:08:20;100879.31;;;5.66;100.00
20696;BME280;10507;52.754;13.040;2023-02-22T04:10:48;100887.25;;;5.66;100.00
20696;BME280;10507;52.754;13.040;2023-02-22T04:13:16;100900.47;;;5.68;100.00
20696;BME280;10507;52.754;13.040;2023-02-22T04:15:44;100911.09;;;5.66;100.00
20696;BME280;10507;52.754;13.040;2023-02-22T04:18:12;100902.41;;;5.61;100.00
20696;BME280;10507;52.754;13.040;2023-02-22T04:20:40;100920.97;;;5.61;100.00
20696;BME280;10507;52.754;13.040;2023-02-22T04:23:08;100907.06;;;5.51;100.00
20696;BME280;10507;52.754;13.040;2023-02-22T04:25:38;100918.56;;;5.50;100.00
20696;BME280;10507;52.754;13.040;2023-02-22T04:28:05;100915.19;;;5.44;100.00
20696;BME280;10507;52.754;13.040;2023-02-22T04:30:33;100918.00;;;5.37;100.00
20696;BME280;10507;52.754;13.040;2023-02-22T04:33:01;100933.00;;;5.37;100.00
20696;BME280;10507;52.754;13.040;2023-02-22T04:35:29;100934.75;;;5.38;100.00
20696;BME280;10507;52.754;13.040;2023-02-22T04:38:00;100939.25;;;5.34;100.00
20696;BME280;10507;52.754;13.040;2023-02-22T04:40:29;100936.75;;;5.28;100.00
20696;BME280;10507;52.754;13.040;2023-02-22T04:42:59;100941.31;;;5.21;100.00
20696;BME280;10507;52.754;13.040;2023-02-22T04:45:27;100942.38;;;5.13;100.00
20696;BME280;10507;52.754;13.040;2023-02-22T04:47:55;100940.72;;;5.09;100.00
20696;BME280;10507;52.754;13.040;2023-02-22T04:50:23;100946.06;;;5.07;100.00
20696;BME280;10507;52.754;13.040;2023-02-22T04:52:50;100938.22;;;5.03;100.00
20696;BME280;10507;52.754;13.040;2023-02-22T04:55:18;100949.75;;;5.00;100.00
20696;BME280;10507;52.754;13.040;2023-02-22T04:57:47;100950.75;;;4.94;100.00
20696;BME280;10507;52.754;13.040;2023-02-22T05:00:18;100953.50;;;4.90;100.00
20696;BME280;10507;52.754;13.040;2023-02-22T05:02:47;100954.47;;;4.84;100.00
20696;BME280;10507;52.754;13.040;2023-02-22T05:05:18;100971.28;;;4.83;100.00
20696;BME280;10507;52.754;13.040;2023-02-22T05:07:47;100981.00;;;4.81;100.00
20696;BME280;10507;52.754;13.040;2023-02-22T05:10:15;101001.22;;;4.85;100.00
20696;BME280;10507;52.754;13.040;2023-02-22T05:12:43;101015.22;;;4.90;100.00
20696;BME280;10507;52.754;13.040;2023-02-22T05:15:17;101026.56;;;4.95;100.00
20696;BME280;10507;52.754;13.040;2023-02-22T05:17:45;101024.84;;;4.94;100.00
20696;BME280;10507;52.754;13.040;2023-02-22T05:20:17;101014.25;;;4.94;100.00
20696;BME280;10507;52.754;13.040;2023-02-22T05:22:47;101007.25;;;4.92;100.00
20696;BME280;10507;52.754;13.040;2023-02-22T05:25:17;101010.84;;;4.89;100.00
20696;BME280;10507;52.754;13.040;2023-02-22T05:27:50;101009.06;;;4.90;100.00
20696;BME280;10507;52.754;13.040;2023-02-22T05:30:22;101031.03;;;4.93;100.00
20696;BME280;10507;52.754;13.040;2023-02-22T05:32:50;101038.00;;;4.97;100.00
20696;BME280;10507;52.754;13.040;2023-02-22T05:35:19;101046.72;;;5.03;100.00
20696;BME280;10507;52.754;13.040;2023-02-22T05:37:48;101065.09;;;5.09;100.00
20696;BME280;10507;52.754;13.040;2023-02-22T05:40:16;101055.34;;;5.12;100.00
20696;BME280;10507;52.754;13.040;2023-02-22T05:42:45;101050.91;;;5.13;100.00
20696;BME280;10507;52.754;13.040;2023-02-22T05:45:16;101038.50;;;5.15;100.00
20696;BME280;10507;52.754;13.040;2023-02-22T05:47:45;101032.34;;;5.14;100.00
20696;BME280;10507;52.754;13.040;2023-02-22T05:50:13;101013.81;;;5.16;100.00
20696;BME280;10507;52.754;13.040;2023-02-22T05:52:41;101009.47;;;5.12;100.00
20696;BME280;10507;52.754;13.040;2023-02-22T05:55:10;101005.06;;;5.11;100.00
20696;BME280;10507;52.754;13.040;2023-02-22T05:57:39;101005.06;;;5.11;100.00
20696;BME280;10507;52.754;13.040;2023-02-22T06:00:08;101015.66;;;5.11;100.00
20696;BME280;10507;52.754;13.040;2023-02-22T06:02:36;101020.94;;;5.11;100.00
20696;BME280;10507;52.754;13.040;2023-02-22T06:05:07;101042.06;;;5.14;100.00
20696;BME280;10507;52.754;13.040;2023-02-22T06:07:35;101041.25;;;5.10;100.00
20696;BME280;10507;52.754;13.040;2023-02-22T06:10:03;101036.91;;;5.08;100.00
20696;BME280;10507;52.754;13.040;2023-02-22T06:12:31;101064.97;;;5.15;100.00
20696;BME280;10507;52.754;13.040;2023-02-22T06:14:59;101069.31;;;5.19;100.00
20696;BME280;10507;52.754;13.040;2023-02-22T06:17:26;101071.00;;;5.23;100.00
20696;BME280;10507;52.754;13.040;2023-02-22T06:19:55;101071.75;;;5.28;100.00
20696;BME280;10507;52.754;13.040;2023-02-22T06:22:25;101055.78;;;5.31;100.00
20696;BME280;10507;52.754;13.040;2023-02-22T06:24:53;101052.16;;;5.37;100.00
20696;BME280;10507;52.754;13.040;2023-02-22T06:27:20;101025.69;;;5.37;100.00
20696;BME280;10507;52.754;13.040;2023-02-22T06:29:48;101026.53;;;5.39;100.00
20696;BME280;10507;52.754;13.040;2023-02-22T06:32:16;101028.19;;;5.43;100.00
20696;BME280;10507;52.754;13.040;2023-02-22T06:34:44;101023.78;;;5.44;100.00
20696;BME280;10507;52.754;13.040;2023-02-22T06:37:12;101024.59;;;5.46;100.00
20696;BME280;10507;52.754;13.040;2023-02-22T06:39:41;101038.63;;;5.49;100.00
20696;BME280;10507;52.754;13.040;2023-02-22T06:42:09;101036.88;;;5.50;100.00
20696;BME280;10507;52.754;13.040;2023-02-22T06:44:37;101064.88;;;5.60;100.00
20696;BME280;10507;52.754;13.040;2023-02-22T06:47:05;101074.41;;;5.67;100.00
20696;BME280;10507;52.754;13.040;2023-02-22T06:49:32;101074.22;;;5.76;100.00
20696;BME280;10507;52.754;13.040;2023-02-22T06:52:00;101074.97;;;5.83;100.00
20696;BME280;10507;52.754;13.040;2023-02-22T06:54:30;101065.13;;;5.88;100.00
20696;BME280;10507;52.754;13.040;2023-02-22T06:56:59;101051.69;;;5.96;100.00
20696;BME280;10507;52.754;13.040;2023-02-22T06:59:27;101057.59;;;6.07;100.00
20696;BME280;10507;52.754;13.040;2023-02-22T07:01:55;101040.69;;;6.13;100.00
20696;BME280;10507;52.754;13.040;2023-02-22T07:04:23;101038.69;;;6.21;100.00
20696;BME280;10507;52.754;13.040;2023-02-22T07:06:51;101035.78;;;6.32;100.00
20696;BME280;10507;52.754;13.040;2023-02-22T07:09:18;101037.28;;;6.42;100.00
20696;BME280;10507;52.754;13.040;2023-02-22T07:11:46;101047.56;;;6.54;100.00
20696;BME280;10507;52.754;13.040;2023-02-22T07:14:16;101040.16;;;6.65;100.00
20696;BME280;10507;52.754;13.040;2023-02-22T07:16:44;101036.47;;;6.73;100.00
20696;BME280;10507;52.754;13.040;2023-02-22T07:19:12;101030.94;;;6.79;100.00
20696;BME280;10507;52.754;13.040;2023-02-22T07:21:40;101021.09;;;6.84;100.00
20696;BME280;10507;52.754;13.040;2023-02-22T07:24:07;101014.69;;;6.91;100.00
20696;BME280;10507;52.754;13.040;2023-02-22T07:26:38;101025.03;;;7.00;100.00
20696;BME280;10507;52.754;13.040;2023-02-22T07:29:06;101014.25;;;7.06;100.00
20696;BME280;10507;52.754;13.040;2023-02-22T07:31:38;101007.97;;;7.09;100.00
20696;BME280;10507;52.754;13.040;2023-02-22T07:34:06;100995.53;;;7.11;100.00
20696;BME280;10507;52.754;13.040;2023-02-22T07:36:33;100986.50;;;7.17;100.00
20696;BME280;10507;52.754;13.040;2023-02-22T07:39:01;100989.94;;;7.20;100.00
20696;BME280;10507;52.754;13.040;2023-02-22T07:41:29;100974.06;;;7.17;100.00
20696;BME280;10507;52.754;13.040;2023-02-22T07:43:57;100974.16;;;7.16;100.00
20696;BME280;10507;52.754;13.040;2023-02-22T07:46:24;100981.16;;;7.18;100.00
20696;BME280;10507;52.754;13.040;2023-02-22T07:48:54;100973.13;;;7.20;100.00
20696;BME280;10507;52.754;13.040;2023-02-22T07:51:21;100952.91;;;7.16;100.00
20696;BME280;10507;52.754;13.040;2023-02-22T07:53:49;100941.47;;;7.14;100.00
20696;BME280;10507;52.754;13.040;2023-02-22T07:56:17;100954.69;;;7.15;100.00
20696;BME280;10507;52.754;13.040;2023-02-22T07:58:45;100942.28;;;7.16;100.00
20696;BME280;10507;52.754;13.040;2023-02-22T08:01:13;100954.59;;;7.18;100.00
20696;BME280;10507;52.754;13.040;2023-02-22T08:03:42;100940.34;;;7.21;100.00
20696;BME280;10507;52.754;13.040;2023-02-22T08:06:14;100963.19;;;7.26;100.00
20696;BME280;10507;52.754;13.040;2023-02-22T08:08:42;100972.75;;;7.32;100.00
20696;BME280;10507;52.754;13.040;2023-02-22T08:11:10;100958.44;;;7.36;100.00
20696;BME280;10507;52.754;13.040;2023-02-22T08:13:38;100970.63;;;7.43;100.00
20696;BME280;10507;52.754;13.040;2023-02-22T08:16:06;100965.16;;;7.48;100.00
20696;BME280;10507;52.754;13.040;2023-02-22T08:18:33;100951.78;;;7.51;100.00
20696;BME280;10507;52.754;13.040;2023-02-22T08:21:04;100936.72;;;7.52;100.00
20696;BME280;10507;52.754;13.040;2023-02-22T08:23:33;100940.06;;;7.57;100.00
20696;BME280;10507;52.754;13.040;2023-02-22T08:26:05;100941.81;;;7.58;100.00
20696;BME280;10507;52.754;13.040;2023-02-22T08:28:33;100939.97;;;7.60;100.00
20696;BME280;10507;52.754;13.040;2023-02-22T08:31:01;100932.81;;;7.62;100.00
20696;BME280;10507;52.754;13.040;2023-02-22T08:33:28;100959.06;;;7.71;100.00
20696;BME280;10507;52.754;13.040;2023-02-22T08:35:56;100948.25;;;7.77;100.00
20696;BME280;10507;52.754;13.040;2023-02-22T08:38:26;100953.25;;;7.86;100.00
20696;BME280;10507;52.754;13.040;2023-02-22T08:40:56;100971.47;;;7.99;100.00
20696;BME280;10507;52.754;13.040;2023-02-22T08:43:24;100956.22;;;8.04;100.00
20696;BME280;10507;52.754;13.040;2023-02-22T08:45:53;100939.09;;;8.11;100.00
20696;BME280;10507;52.754;13.040;2023-02-22T08:48:23;100906.28;;;8.12;100.00
20696;BME280;10507;52.754;13.040;2023-02-22T08:50:51;100914.91;;;8.19;100.00
20696;BME280;10507;52.754;13.040;2023-02-22T08:53:19;100883.75;;;8.22;100.00
20696;BME280;10507;52.754;13.040;2023-02-22T08:55:47;100895.09;;;8.27;100.00
20696;BME280;10507;52.754;13.040;2023-02-22T08:58:18;100883.34;;;8.33;100.00
20696;BME280;10507;52.754;13.040;2023-02-22T09:00:46;100859.38;;;8.35;100.00
20696;BME280;10507;52.754;13.040;2023-02-22T09:03:14;100829.16;;;8.36;100.00
20696;BME280;10507;52.754;13.040;2023-02-22T09:05:43;100815.84;;;8.36;100.00
20696;BME280;10507;52.754;13.040;2023-02-22T09:08:12;100815.75;;;8.39;100.00
20696;BME280;10507;52.754;13.040;2023-02-22T09:10:40;100833.16;;;8.47;100.00
20696;BME280;10507;52.754;13.040;2023-02-22T09:13:08;100782.81;;;8.43;100.00
20696;BME280;10507;52.754;13.040;2023-02-22T09:15:37;100812.66;;;8.51;100.00
20696;BME280;10507;52.754;13.040;2023-02-22T09:18:07;100777.16;;;8.52;100.00
20696;BME280;10507;52.754;13.040;2023-02-22T09:20:35;100775.25;;;8.54;100.00
20696;BME280;10507;52.754;13.040;2023-02-22T09:23:05;100772.31;;;8.62;100.00
20696;BME280;10507;52.754;13.040;2023-02-22T09:25:35;100765.13;;;8.64;100.00
20696;BME280;10507;52.754;13.040;2023-02-22T09:28:04;100753.34;;;8.69;100.00
20696;BME280;10507;52.754;13.040;2023-02-22T09:30:33;100780.41;;;8.81;100.00
20696;BME280;10507;52.754;13.040;2023-02-22T09:33:05;100793.25;;;8.93;100.00
20696;BME280;10507;52.754;13.040;2023-02-22T09:35:35;100746.91;;;8.97;99.24
20696;BME280;10507;52.754;13.040;2023-02-22T09:38:08;100697.13;;;8.99;98.53
20696;BME280;10507;52.754;13.040;2023-02-22T09:40:39;100677.59;;;8.99;98.72
20696;BME280;10507;52.754;13.040;2023-02-22T09:43:32;100694.13;;;9.07;98.17
20696;BME280;10507;52.754;13.040;2023-02-22T09:46:12;100664.78;;;9.08;98.22
20696;BME280;10507;52.754;13.040;2023-02-22T09:48:55;100641.44;;;9.13;97.59
20696;BME280;10507;52.754;13.040;2023-02-22T09:51:27;100621.22;;;9.09;97.61
20696;BME280;10507;52.754;13.040;2023-02-22T09:53:59;100656.88;;;9.26;97.15
20696;BME280;10507;52.754;13.040;2023-02-22T09:56:28;100645.94;;;9.32;96.76
20696;BME280;10507;52.754;13.040;2023-02-22T09:59:00;100616.66;;;9.32;96.87
20696;BME280;10507;52.754;13.040;2023-02-22T10:01:31;100619.19;;;9.35;96.70
20696;BME280;10507;52.754;13.040;2023-02-22T10:04:09;100580.13;;;9.34;96.08
20696;BME280;10507;52.754;13.040;2023-02-22T10:06:56;100595.00;;;9.40;96.67
20696;BME280;10507;52.754;13.040;2023-02-22T10:09:27;100596.28;;;9.50;95.74
20696;BME280;10507;52.754;13.040;2023-02-22T10:11:58;100562.16;;;9.58;95.56
20696;BME280;10507;52.754;13.040;2023-02-22T10:14:43;100509.63;;;9.41;95.86
20696;BME280;10507;52.754;13.040;2023-02-22T10:17:21;100503.22;;;9.45;94.80
20696;BME280;10507;52.754;13.040;2023-02-22T10:20:02;100478.72;;;9.37;94.80
20696;BME280;10507;52.754;13.040;2023-02-22T10:22:46;100520.66;;;9.52;94.97
20696;BME280;10507;52.754;13.040;2023-02-22T10:25:21;100478.00;;;9.52;94.38
20696;BME280;10507;52.754;13.040;2023-02-22T10:27:55;100465.34;;;9.57;93.87
20696;BME280;10507;52.754;13.040;2023-02-22T10:30:27;100515.44;;;9.68;94.28
20696;BME280;10507;52.754;13.040;2023-02-22T10:33:07;100502.59;;;9.76;94.07
20696;BME280;10507;52.754;13.040;2023-02-22T10:35:40;100507.78;;;9.79;94.00
20696;BME280;10507;52.754;13.040;2023-02-22T10:38:15;100494.72;;;9.92;93.26
20696;BME280;10507;52.754;13.040;2023-02-22T10:40:49;100423.19;;;9.83;92.69
20696;BME280;10507;52.754;13.040;2023-02-22T10:43:18;100400.59;;;9.90;92.01
20696;BME280;10507;52.754;13.040;2023-02-22T10:45:46;100376.28;;;9.96;91.81
20696;BME280;10507;52.754;13.040;2023-02-22T10:48:18;100252.31;;;9.70;91.23
20696;BME280;10507;52.754;13.040;2023-02-22T10:50:48;100295.84;;;9.71;91.69
20696;BME280;10507;52.754;13.040;2023-02-22T10:53:16;100304.16;;;9.82;90.96
20696;BME280;10507;52.754;13.040;2023-02-22T10:56:07;100262.47;;;9.79;90.91
20696;BME280;10507;52.754;13.040;2023-02-22T10:58:40;100310.88;;;9.89;90.77
20696;BME280;10507;52.754;13.040;2023-02-22T11:01:20;100210.47;;;9.88;89.28
20696;BME280;10507;52.754;13.040;2023-02-22T11:04:07;100229.00;;;9.91;89.57
20696;BME280;10507;52.754;13.040;2023-02-22T11:06:39;100201.03;;;9.98;89.43
20696;BME280;10507;52.754;13.040;2023-02-22T11:09:11;100146.66;;;9.85;89.17
20696;BME280;10507;52.754;13.040;2023-02-22T11:11:41;100140.03;;;9.92;88.56
20696;BME280;10507;52.754;13.040;2023-02-22T11:14:12;100079.66;;;9.91;87.85
20696;BME280;10507;52.754;13.040;2023-02-22T11:16:44;100021.09;;;9.90;86.85
20696;BME280;10507;52.754;13.040;2023-02-22T11:19:19;99996.56;;;9.83;86.99
20696;BME280;10507;52.754;13.040;2023-02-22T11:21:52;100057.56;;;9.89;87.31
20696;BME280;10507;52.754;13.040;2023-02-22T11:24:23;100073.56;;;9.89;87.29
20696;BME280;10507;52.754;13.040;2023-02-22T11:27:21;100040.19;;;9.98;86.36
20696;BME280;10507;52.754;13.040;2023-02-22T11:29:51;100037.81;;;10.08;86.31
20696;BME280;10507;52.754;13.040;2023-02-22T11:32:19;100117.31;;;10.17;86.76
20696;BME280;10507;52.754;13.040;2023-02-22T11:34:49;100106.31;;;10.23;86.45
20696;BME280;10507;52.754;13.040;2023-02-22T11:37:35;100057.97;;;10.29;86.04
20696;BME280;10507;52.754;13.040;2023-02-22T11:40:12;99968.50;;;10.22;85.53
20696;BME280;10507;52.754;13.040;2023-02-22T11:42:43;99958.59;;;10.24;85.02
20696;BME280;10507;52.754;13.040;2023-02-22T11:45:14;99906.38;;;10.06;85.17
20696;BME280;10507;52.754;13.040;2023-02-22T11:47:48;99897.94;;;10.13;84.67
20696;BME280;10507;52.754;13.040;2023-02-22T11:50:26;99967.38;;;10.26;84.70
20696;BME280;10507;52.754;13.040;2023-02-22T11:53:08;99901.66;;;10.25;84.00
20696;BME280;10507;52.754;13.040;2023-02-22T11:55:46;99945.22;;;10.40;84.44
20696;BME280;10507;52.754;13.040;2023-02-22T11:58:32;99903.13;;;10.45;83.88
20696;BME280;10507;52.754;13.040;2023-02-22T12:01:12;99846.50;;;10.40;83.67
20696;BME280;10507;52.754;13.040;2023-02-22T12:06:47;99815.44;;;10.39;83.35
20696;BME280;10507;52.754;13.040;2023-02-22T12:09:26;99849.09;;;10.42;83.22
20696;BME280;10507;52.754;13.040;2023-02-22T12:12:09;99920.69;;;10.49;84.37
20696;BME280;10507;52.754;13.040;2023-02-22T12:14:50;99866.06;;;10.40;84.05
20696;BME280;10507;52.754;13.040;2023-02-22T12:17:31;99863.88;;;10.47;83.39
20696;BME280;10507;52.754;13.040;2023-02-22T12:20:13;99777.88;;;10.42;83.08
20696;BME280;10507;52.754;13.040;2023-02-22T12:22:51;99790.47;;;10.40;83.50
20696;BME280;10507;52.754;13.040;2023-02-22T12:25:24;99859.38;;;10.48;83.68
20696;BME280;10507;52.754;13.040;2023-02-22T12:27:57;99761.88;;;10.42;82.52
20696;BME280;10507;52.754;13.040;2023-02-22T12:30:33;99755.59;;;10.43;82.97
20696;BME280;10507;52.754;13.040;2023-02-22T12:33:11;99735.84;;;10.46;82.87
20696;BME280;10507;52.754;13.040;2023-02-22T12:35:43;99724.41;;;10.44;82.28
20696;BME280;10507;52.754;13.040;2023-02-22T12:38:19;99732.97;;;10.49;82.10
20696;BME280;10507;52.754;13.040;2023-02-22T12:40:54;99727.56;;;10.50;82.92
20696;BME280;10507;52.754;13.040;2023-02-22T12:43:27;99772.38;;;10.45;83.44
20696;BME280;10507;52.754;13.040;2023-02-22T12:46:02;99750.56;;;10.38;83.65
20696;BME280;10507;52.754;13.040;2023-02-22T12:48:37;99798.47;;;10.40;84.20
20696;BME280;10507;52.754;13.040;2023-02-22T12:51:19;99857.84;;;10.44;84.14
20696;BME280;10507;52.754;13.040;2023-02-22T12:53:55;99742.34;;;10.42;82.96
20696;BME280;10507;52.754;13.040;2023-02-22T12:56:31;99733.66;;;10.38;83.17
20696;BME280;10507;52.754;13.040;2023-02-22T12:59:06;99721.97;;;10.40;83.09
20696;BME280;10507;52.754;13.040;2023-02-22T13:01:50;99708.25;;;10.32;83.39
20696;BME280;10507;52.754;13.040;2023-02-22T13:04:20;99805.53;;;10.41;83.49
20696;BME280;10507;52.754;13.040;2023-02-22T13:06:56;99759.88;;;10.46;83.17
20696;BME280;10507;52.754;13.040;2023-02-22T13:09:51;99772.53;;;10.42;83.94
20696;BME280;10507;52.754;13.040;2023-02-22T13:12:31;99769.88;;;10.28;84.57
20696;BME280;10507;52.754;13.040;2023-02-22T13:15:08;99766.34;;;10.27;84.24